Time;durP1;ratioP1;P1;durP2;ratioP2;P2;SDS_P1;SDS_P2;PMS_P1;PMS_P2;Temp;Humidity;BMP_temperature;BMP_pressure;BME280_temperature;BME280_humidity;BME280_pressure;Samples;Min_cycle;Max_cycle;Signal;HPM_P1;HPM_P2
2022/03/14 05:55:25;;;;;;;1.00;0.90;;;18.80;36.80;;;;;;4991841;28;20838;-65
2022/03/14 05:57:52;;;;;;;3.83;1.07;;;18.80;36.70;;;;;;4979565;28;20441;-65
2022/03/14 06:00:22;;;;;;;1.17;1.07;;;18.80;36.70;;;;;;4983131;28;20288;-66
2022/03/14 06:02:48;;;;;;;1.20;1.10;;;18.80;36.70;;;;;;4980884;28;20473;-65
2022/03/14 06:05:17;;;;;;;1.27;1.17;;;18.80;36.70;;;;;;4976490;28;20465;-65
2022/03/14 06:07:43;;;;;;;1.10;1.00;;;18.80;36.70;;;;;;4980828;28;20466;-65
2022/03/14 06:10:09;;;;;;;1.37;1.27;;;18.80;36.70;;;;;;4982484;28;20517;-65
2022/03/14 06:12:35;;;;;;;1.40;1.30;;;18.90;36.80;;;;;;4980463;28;20454;-65
2022/03/14 06:15:03;;;;;;;1.67;1.57;;;18.90;36.80;;;;;;4982949;28;20446;-65
2022/03/14 06:17:28;;;;;;;2.60;1.10;;;18.90;36.80;;;;;;4984385;28;20428;-65
2022/03/14 06:19:54;;;;;;;1.30;1.20;;;18.90;36.80;;;;;;4976552;28;20464;-65
2022/03/14 06:22:22;;;;;;;1.33;1.10;;;18.90;36.80;;;;;;4978935;28;20247;-65
2022/03/14 06:24:49;;;;;;;1.20;1.10;;;18.90;36.80;;;;;;4980719;28;20224;-68
2022/03/14 06:27:16;;;;;;;0.97;0.93;;;18.90;36.80;;;;;;4979455;28;21259;-64
2022/03/14 06:29:42;;;;;;;1.13;1.03;;;18.80;36.70;;;;;;4979849;28;20442;-67
2022/03/14 06:32:08;;;;;;;1.20;1.10;;;18.90;36.70;;;;;;4978929;28;20458;-67
2022/03/14 06:34:34;;;;;;;2.60;1.20;;;18.90;36.80;;;;;;4979054;28;20805;-65
2022/03/14 06:36:59;;;;;;;0.90;0.90;;;18.90;36.80;;;;;;4983715;28;20457;-62
2022/03/14 06:39:25;;;;;;;1.20;1.10;;;18.90;36.70;;;;;;4977594;28;20311;-65
2022/03/14 06:41:51;;;;;;;1.10;1.00;;;18.90;36.70;;;;;;4983413;28;20228;-64
2022/03/14 06:44:18;;;;;;;1.20;1.10;;;18.90;36.80;;;;;;4981394;28;20425;-64
2022/03/14 06:46:44;;;;;;;1.10;1.00;;;18.90;36.70;;;;;;4977189;28;20629;-64
2022/03/14 06:49:11;;;;;;;1.20;1.10;;;18.90;36.70;;;;;;4977885;28;20459;-64
2022/03/14 06:51:38;;;;;;;3.97;1.27;;;18.90;36.70;;;;;;4979321;28;20788;-63
2022/03/14 06:54:03;;;;;;;1.20;1.10;;;18.90;36.70;;;;;;4987054;28;20468;-64
2022/03/14 06:56:29;;;;;;;1.30;1.20;;;18.90;36.70;;;;;;4996972;28;20466;-64
2022/03/14 06:58:55;;;;;;;1.20;1.03;;;18.90;36.80;;;;;;5004146;28;20730;-64
2022/03/14 07:01:22;;;;;;;1.20;1.00;;;18.90;36.80;;;;;;4999234;28;20504;-64
2022/03/14 07:03:48;;;;;;;1.20;1.10;;;18.90;36.80;;;;;;5000232;28;20629;-64
2022/03/14 07:06:13;;;;;;;1.10;1.00;;;18.90;36.80;;;;;;4997940;28;20445;-63
2022/03/14 07:08:39;;;;;;;1.10;1.00;;;18.90;36.90;;;;;;5000727;28;20647;-64
2022/03/14 07:11:04;;;;;;;1.10;1.00;;;18.90;36.80;;;;;;5007363;28;20241;-63
2022/03/14 07:13:30;;;;;;;1.27;1.17;;;18.90;36.80;;;;;;4999617;28;20311;-64
2022/03/14 07:15:55;;;;;;;1.27;1.00;;;18.90;36.80;;;;;;5003988;28;20626;-64
2022/03/14 07:18:21;;;;;;;1.30;1.20;;;18.90;36.80;;;;;;5001376;28;20290;-64
2022/03/14 07:20:46;;;;;;;1.23;1.13;;;18.90;36.80;;;;;;5003349;28;20248;-64
2022/03/14 07:23:12;;;;;;;2.47;1.07;;;18.90;36.80;;;;;;5002444;28;20251;-64
2022/03/14 07:25:38;;;;;;;1.90;1.43;;;18.90;36.90;;;;;;5000910;28;20227;-64
2022/03/14 07:28:08;;;;;;;1.10;1.00;;;18.90;36.90;;;;;;4998605;28;20228;-64
2022/03/14 07:30:39;;;;;;;1.40;1.13;;;18.90;36.90;;;;;;4997027;28;20450;-63
2022/03/14 07:33:05;;;;;;;3.03;1.17;;;18.90;36.90;;;;;;5001227;28;20547;-63
2022/03/14 07:35:31;;;;;;;2.33;1.30;;;18.90;36.90;;;;;;5003686;28;20416;-64
2022/03/14 07:37:57;;;;;;;1.00;0.90;;;18.90;36.90;;;;;;5003044;28;21005;-63
2022/03/14 07:40:23;;;;;;;2.13;1.10;;;18.90;36.90;;;;;;4998146;28;20512;-66
2022/03/14 07:42:50;;;;;;;1.00;0.90;;;18.90;36.90;;;;;;5000049;28;20233;-67
2022/03/14 07:45:19;;;;;;;2.13;0.90;;;18.90;36.90;;;;;;4999704;28;20670;-65
2022/03/14 07:47:44;;;;;;;1.10;1.00;;;18.90;36.90;;;;;;5005752;28;20926;-65
2022/03/14 07:50:13;;;;;;;1.10;1.00;;;18.90;36.90;;;;;;5003587;28;20474;-69
2022/03/14 07:52:39;;;;;;;1.27;1.17;;;18.90;36.80;;;;;;5003812;28;20315;-66
2022/03/14 07:55:07;;;;;;;1.43;1.33;;;18.90;36.90;;;;;;5002929;28;20978;-69
2022/03/14 07:57:33;;;;;;;2.33;1.00;;;18.90;36.80;;;;;;5001569;28;20453;-65
2022/03/14 08:00:04;;;;;;;1.10;1.00;;;18.90;36.90;;;;;;5005418;28;20476;-66
2022/03/14 08:02:30;;;;;;;2.70;1.23;;;18.90;36.90;;;;;;5000167;28;20439;-66
2022/03/14 08:04:55;;;;;;;1.60;1.10;;;18.90;36.80;;;;;;5005241;28;20461;-67
2022/03/14 08:07:21;;;;;;;1.20;1.10;;;18.90;36.90;;;;;;5000603;28;20684;-66
2022/03/14 08:09:50;;;;;;;1.93;1.03;;;18.90;36.90;;;;;;5004503;28;20219;-67
2022/03/14 08:12:16;;;;;;;1.00;0.90;;;18.90;36.90;;;;;;5000151;28;20217;-66
2022/03/14 08:14:43;;;;;;;1.40;1.13;;;18.90;36.90;;;;;;5003266;28;21137;-66
2022/03/14 08:17:08;;;;;;;1.83;0.90;;;18.90;36.90;;;;;;5005352;28;20810;-67
2022/03/14 08:19:34;;;;;;;1.10;1.00;;;18.90;36.90;;;;;;5006868;28;20473;-65
2022/03/14 08:22:03;;;;;;;1.40;0.97;;;18.90;36.90;;;;;;5006088;28;20232;-66
2022/03/14 08:24:29;;;;;;;1.60;1.00;;;18.90;36.90;;;;;;5003247;28;20445;-66
2022/03/14 08:26:55;;;;;;;1.40;1.30;;;18.90;36.90;;;;;;5006725;28;20434;-67
2022/03/14 08:29:20;;;;;;;1.47;1.13;;;18.90;36.90;;;;;;5002677;28;20260;-66
2022/03/14 08:31:46;;;;;;;1.33;1.23;;;18.90;36.90;;;;;;5001613;28;20308;-66
2022/03/14 08:34:12;;;;;;;1.23;1.07;;;18.90;36.90;;;;;;5007655;28;20217;-66
2022/03/14 08:36:40;;;;;;;1.17;1.00;;;18.90;36.90;;;;;;5008973;28;20232;-67
2022/03/14 08:39:09;;;;;;;1.13;1.03;;;18.90;36.90;;;;;;5005751;28;20356;-66
2022/03/14 08:41:39;;;;;;;1.23;0.93;;;18.90;36.90;;;;;;5005088;28;20445;-66
2022/03/14 08:44:06;;;;;;;2.37;0.80;;;18.90;36.90;;;;;;5003140;28;20424;-66
2022/03/14 08:46:32;;;;;;;3.87;0.83;;;18.90;36.90;;;;;;5005526;28;20951;-66
2022/03/14 08:48:58;;;;;;;1.80;0.90;;;18.90;37.00;;;;;;5005286;28;20478;-66
2022/03/14 08:51:24;;;;;;;1.23;1.13;;;18.90;37.00;;;;;;5006113;28;20473;-66
2022/03/14 08:53:50;;;;;;;2.93;0.87;;;18.90;37.00;;;;;;5006703;28;20467;-66
2022/03/14 08:56:16;;;;;;;1.10;1.00;;;18.90;36.90;;;;;;5004887;28;20445;-69
2022/03/14 08:58:41;;;;;;;4.53;1.00;;;18.90;36.90;;;;;;5005907;28;20240;-68
2022/03/14 09:01:07;;;;;;;1.30;1.00;;;18.90;37.00;;;;;;5002041;28;20234;-66
2022/03/14 09:03:33;;;;;;;1.30;1.20;;;18.90;37.00;;;;;;5005350;28;20680;-67
2022/03/14 09:05:58;;;;;;;1.00;0.90;;;18.90;37.00;;;;;;5001620;28;20219;-67
2022/03/14 09:08:27;;;;;;;1.93;1.00;;;18.90;37.00;;;;;;5009443;28;20228;-66
2022/03/14 09:10:58;;;;;;;1.20;1.10;;;18.90;37.00;;;;;;5003851;28;20350;-67
2022/03/14 09:13:24;;;;;;;1.10;1.00;;;18.90;37.00;;;;;;5007770;28;20472;-66
2022/03/14 09:15:50;;;;;;;1.13;1.03;;;18.90;37.00;;;;;;5013734;28;20453;-67
2022/03/14 09:18:16;;;;;;;1.47;1.03;;;18.90;37.00;;;;;;5003845;28;20216;-66
2022/03/14 09:20:42;;;;;;;1.10;1.00;;;18.90;37.00;;;;;;5000188;28;20507;-66
2022/03/14 09:23:09;;;;;;;1.07;0.97;;;18.90;37.10;;;;;;5002356;28;20227;-66
2022/03/14 09:25:34;;;;;;;7.10;1.20;;;18.90;37.10;;;;;;5008246;28;20446;-65
2022/03/14 09:28:00;;;;;;;1.20;1.10;;;18.90;37.00;;;;;;5005858;28;20452;-67
2022/03/14 09:30:27;;;;;;;1.23;1.10;;;18.90;37.00;;;;;;5001495;28;20260;-66
2022/03/14 09:32:54;;;;;;;1.60;1.00;;;18.90;37.10;;;;;;5004544;28;20227;-66
2022/03/14 09:35:21;;;;;;;1.57;1.10;;;18.90;37.10;;;;;;5004249;28;20425;-66
2022/03/14 09:37:49;;;;;;;1.73;1.10;;;18.90;37.10;;;;;;5003153;28;20442;-67
2022/03/14 09:40:19;;;;;;;1.60;0.90;;;18.90;37.10;;;;;;5004455;28;20972;-65
2022/03/14 09:42:48;;;;;;;1.20;1.00;;;18.80;37.10;;;;;;5001058;28;20424;-67
2022/03/14 09:45:15;;;;;;;1.23;1.13;;;18.80;37.00;;;;;;5004313;28;20470;-65
2022/03/14 09:47:55;;;;;;;1.13;0.83;;;18.80;37.00;;;;;;5004320;28;20967;-68
2022/03/14 09:50:33;;;;;;;1.70;1.40;;;18.80;37.10;;;;;;5005459;28;20454;-67
2022/03/14 09:53:03;;;;;;;1.30;1.20;;;18.90;37.10;;;;;;5017465;28;20431;-66
2022/03/14 09:55:29;;;;;;;1.00;0.90;;;18.80;37.80;;;;;;5004022;28;20465;-67
2022/03/14 09:57:55;;;;;;;1.40;1.00;;;18.80;37.10;;;;;;5002596;28;20860;-66
2022/03/14 10:00:23;;;;;;;1.40;1.10;;;18.80;37.10;;;;;;5001200;28;20459;-66
2022/03/14 10:02:49;;;;;;;1.20;1.10;;;18.80;37.10;;;;;;5005462;28;20754;-67
2022/03/14 10:05:16;;;;;;;1.17;1.07;;;18.80;37.10;;;;;;5005308;28;20432;-66
2022/03/14 10:07:43;;;;;;;2.40;0.83;;;18.80;37.10;;;;;;5005611;28;20232;-66
2022/03/14 10:10:09;;;;;;;1.10;1.00;;;18.80;37.10;;;;;;5004756;28;20424;-66
2022/03/14 10:12:35;;;;;;;1.83;1.73;;;18.80;37.10;;;;;;4996879;28;20455;-66
2022/03/14 10:15:03;;;;;;;2.10;1.13;;;18.80;37.10;;;;;;4999528;28;20492;-66
2022/03/14 10:17:29;;;;;;;2.20;1.27;;;18.80;37.10;;;;;;5001308;28;20224;-66
2022/03/14 10:19:59;;;;;;;1.03;0.93;;;18.80;37.10;;;;;;5002502;28;20836;-66
2022/03/14 10:22:33;;;;;;;1.67;1.17;;;18.80;37.20;;;;;;5002998;28;20449;-66
2022/03/14 10:25:30;;;;;;;1.27;1.17;;;18.80;37.20;;;;;;5000810;28;20436;-66
2022/03/14 10:27:57;;;;;;;2.30;1.23;;;18.80;37.20;;;;;;5001321;28;20461;-66
2022/03/14 10:30:25;;;;;;;0.83;0.80;;;18.80;37.20;;;;;;5000824;28;20462;-66
2022/03/14 10:33:23;;;;;;;1.27;1.07;;;18.80;37.20;;;;;;5002076;28;20474;-66
2022/03/14 10:35:49;;;;;;;1.30;1.20;;;18.80;37.20;;;;;;4999270;28;20481;-63
2022/03/14 10:38:16;;;;;;;1.10;1.00;;;18.80;37.30;;;;;;5000707;28;22153;-64
2022/03/14 10:40:44;;;;;;;1.30;1.20;;;18.80;37.30;;;;;;5001188;28;20231;-64
2022/03/14 10:43:28;;;;;;;1.20;1.10;;;18.80;37.30;;;;;;5001430;28;20993;-63
2022/03/14 10:45:59;;;;;;;1.10;1.00;;;18.80;37.30;;;;;;5000639;28;20458;-63
2022/03/14 10:48:43;;;;;;;1.03;1.00;;;18.70;37.20;;;;;;5003498;28;21307;-63
2022/03/14 10:51:14;;;;;;;1.20;1.10;;;18.80;37.30;;;;;;4999880;28;20447;-63
2022/03/14 10:53:45;;;;;;;2.13;1.20;;;18.80;37.40;;;;;;4999577;28;20475;-63
2022/03/14 10:56:12;;;;;;;1.70;1.00;;;18.70;37.20;;;;;;5001720;28;20490;-63
2022/03/14 10:58:39;;;;;;;1.00;0.90;;;18.70;37.30;;;;;;5000387;28;20457;-63
2022/03/14 11:01:06;;;;;;;1.00;0.90;;;18.80;37.40;;;;;;4999158;28;20950;-62
2022/03/14 11:03:35;;;;;;;1.33;1.10;;;18.80;37.30;;;;;;5004332;28;20427;-63
2022/03/14 11:06:03;;;;;;;1.00;0.90;;;18.70;37.20;;;;;;5004966;28;20428;-63
2022/03/14 11:08:37;;;;;;;1.40;1.30;;;18.70;37.30;;;;;;4995076;28;20680;-62
2022/03/14 11:11:06;;;;;;;1.10;1.00;;;18.70;38.10;;;;;;5000708;28;20518;-63
2022/03/14 11:13:32;;;;;;;2.57;1.10;;;18.80;37.40;;;;;;5005970;28;20429;-63
2022/03/14 11:15:58;;;;;;;1.10;1.00;;;18.70;37.30;;;;;;4999375;28;20421;-63
2022/03/14 11:18:24;;;;;;;1.60;1.00;;;18.70;37.30;;;;;;5000582;28;20421;-63
2022/03/14 11:20:51;;;;;;;1.07;0.90;;;18.70;37.30;;;;;;5005355;28;20299;-63
2022/03/14 11:23:19;;;;;;;1.10;1.00;;;18.70;37.30;;;;;;5004523;28;20449;-63
2022/03/14 11:25:45;;;;;;;1.50;1.00;;;18.70;37.30;;;;;;5000857;28;20445;-63
2022/03/14 11:28:16;;;;;;;1.30;1.00;;;18.80;37.40;;;;;;5005586;28;20478;-64
2022/03/14 11:30:45;;;;;;;2.90;1.00;;;18.70;37.30;;;;;;4998104;28;20462;-65
2022/03/14 11:33:11;;;;;;;0.90;0.90;;;18.70;37.30;;;;;;4998797;28;20443;-63
2022/03/14 11:35:37;;;;;;;1.10;1.00;;;18.70;37.30;;;;;;5002678;28;20451;-64
2022/03/14 11:38:04;;;;;;;1.20;1.10;;;18.70;37.30;;;;;;5004244;28;20427;-64
2022/03/14 11:40:32;;;;;;;1.20;1.10;;;18.70;37.40;;;;;;5000138;28;20496;-65
2022/03/14 11:42:58;;;;;;;1.20;1.10;;;18.70;37.40;;;;;;5008713;28;20544;-63
2022/03/14 11:45:24;;;;;;;1.20;1.00;;;18.80;37.40;;;;;;5000682;28;20480;-64
2022/03/14 11:47:52;;;;;;;1.03;0.97;;;18.70;37.30;;;;;;5000613;28;20459;-63
2022/03/14 11:50:20;;;;;;;1.27;1.17;;;18.70;37.30;;;;;;5001410;28;20515;-63
2022/03/14 11:52:50;;;;;;;1.40;1.30;;;18.70;37.30;;;;;;5003553;28;20456;-63
2022/03/14 11:55:25;;;;;;;1.30;1.20;;;18.70;37.30;;;;;;5005887;28;20457;-62
2022/03/14 11:57:51;;;;;;;1.10;1.00;;;18.70;37.40;;;;;;5002550;28;20444;-66
2022/03/14 12:00:27;;;;;;;1.00;0.90;;;18.70;37.40;;;;;;5004607;28;20497;-63
2022/03/14 12:03:01;;;;;;;1.00;0.90;;;18.70;37.40;;;;;;5005652;28;20697;-64
2022/03/14 12:05:35;;;;;;;1.20;1.10;;;18.70;37.40;;;;;;5009775;28;20431;-64
2022/03/14 12:08:07;;;;;;;1.30;1.20;;;18.70;37.40;;;;;;5012615;28;20449;-63
2022/03/14 12:10:35;;;;;;;0.93;0.83;;;18.70;37.40;;;;;;5001103;28;20840;-66
2022/03/14 12:13:02;;;;;;;1.03;0.87;;;18.70;37.50;;;;;;5010144;28;20529;-65
2022/03/14 12:15:38;;;;;;;0.80;0.73;;;18.70;37.50;;;;;;5003839;28;20943;-65
2022/03/14 12:18:22;;;;;;;1.10;1.00;;;18.70;37.50;;;;;;5001582;28;20457;-64
2022/03/14 12:20:49;;;;;;;1.00;0.90;;;18.70;37.50;;;;;;5008163;28;20527;-64
2022/03/14 12:23:26;;;;;;;0.90;0.90;;;18.70;37.50;;;;;;5005567;28;20432;-63
2022/03/14 12:25:52;;;;;;;1.00;0.90;;;18.70;37.50;;;;;;5006278;28;20830;-63
2022/03/14 12:28:31;;;;;;;1.30;1.07;;;18.70;37.50;;;;;;5009658;28;20450;-64
2022/03/14 12:31:13;;;;;;;1.10;1.00;;;18.70;37.50;;;;;;5003298;28;20432;-63
2022/03/14 12:33:47;;;;;;;0.83;0.80;;;18.80;37.60;;;;;;4979674;28;20445;-63
2022/03/14 12:36:33;;;;;;;1.00;0.90;;;18.70;37.50;;;;;;4978490;28;20890;-63
2022/03/14 12:39:12;;;;;;;0.80;0.80;;;18.70;37.50;;;;;;4984700;28;20437;-63
2022/03/14 12:41:40;;;;;;;1.00;0.90;;;18.80;37.60;;;;;;4982075;28;20442;-63
2022/03/14 12:44:27;;;;;;;1.20;0.97;;;18.70;37.50;;;;;;4983926;28;20455;-63
2022/03/14 12:46:59;;;;;;;1.10;1.00;;;18.70;37.50;;;;;;4980045;28;20515;-63
2022/03/14 12:49:45;;;;;;;1.00;0.90;;;18.70;37.50;;;;;;4983239;28;20441;-63
2022/03/14 12:52:15;;;;;;;1.40;1.00;;;18.70;37.50;;;;;;4998167;28;20462;-62
2022/03/14 12:54:42;;;;;;;0.80;0.80;;;18.70;37.60;;;;;;4999947;28;20483;-63
2022/03/14 12:57:09;;;;;;;0.90;0.77;;;18.70;37.60;;;;;;4997483;28;20458;-63
2022/03/14 12:59:41;;;;;;;0.90;0.80;;;18.70;37.60;;;;;;5002313;28;20454;-63
2022/03/14 13:02:16;;;;;;;1.10;0.93;;;18.70;38.40;;;;;;4997646;28;20425;-63
2022/03/14 13:04:42;;;;;;;0.97;0.90;;;18.70;37.50;;;;;;5008255;28;20434;-66
2022/03/14 13:07:08;;;;;;;0.83;0.80;;;18.70;37.60;;;;;;5001044;28;20447;-64
2022/03/14 13:09:33;;;;;;;1.00;0.90;;;18.70;37.50;;;;;;5001737;28;20944;-63
2022/03/14 13:11:59;;;;;;;0.93;0.93;;;18.70;37.50;;;;;;4999517;28;20636;-64
2022/03/14 13:14:26;;;;;;;0.90;0.90;;;18.80;37.60;;;;;;4995509;28;20224;-64
2022/03/14 13:16:54;;;;;;;1.20;1.10;;;18.70;37.50;;;;;;4997887;28;20428;-68
2022/03/14 13:19:20;;;;;;;1.30;0.90;;;18.70;37.50;;;;;;4999382;28;20466;-67
2022/03/14 13:21:48;;;;;;;1.00;0.90;;;18.70;37.50;;;;;;4989752;28;20428;-66
2022/03/14 13:24:14;;;;;;;1.10;1.00;;;18.70;37.50;;;;;;4994974;28;20455;-66
2022/03/14 13:26:41;;;;;;;0.90;0.90;;;18.70;37.50;;;;;;4996537;28;21460;-65
2022/03/14 13:29:07;;;;;;;1.00;0.90;;;18.70;37.40;;;;;;4992701;28;20231;-65
2022/03/14 13:31:42;;;;;;;1.23;1.07;;;18.70;37.50;;;;;;4985051;28;20438;-64
2022/03/14 13:34:11;;;;;;;0.97;0.90;;;18.70;37.50;;;;;;4996249;28;20223;-65
2022/03/14 13:36:39;;;;;;;1.10;0.93;;;18.70;37.60;;;;;;4994324;28;20429;-64
2022/03/14 13:39:07;;;;;;;3.30;1.07;;;18.70;37.50;;;;;;4997389;28;20975;-64
2022/03/14 13:41:33;;;;;;;1.00;0.90;;;18.70;37.50;;;;;;5000908;28;20863;-64
2022/03/14 13:44:02;;;;;;;0.90;0.90;;;18.70;37.50;;;;;;4997229;28;20461;-64
2022/03/14 13:46:39;;;;;;;1.10;0.90;;;18.70;37.60;;;;;;4999023;28;20463;-64
2022/03/14 13:49:16;;;;;;;1.00;0.90;;;18.70;37.50;;;;;;4997694;28;20924;-63
2022/03/14 13:51:47;;;;;;;1.00;0.90;;;18.70;37.60;;;;;;4995905;28;20936;-64
2022/03/14 13:54:19;;;;;;;4.40;1.60;;;18.80;37.50;;;;;;4995438;28;20474;-64
2022/03/14 13:56:46;;;;;;;1.90;1.80;;;18.70;37.20;;;;;;4998853;28;20433;-64
2022/03/14 13:59:25;;;;;;;1.23;0.87;;;18.80;37.10;;;;;;4997220;28;20572;-67
2022/03/14 14:01:53;;;;;;;0.97;0.93;;;18.80;37.00;;;;;;4998963;28;20458;-65
2022/03/14 14:04:24;;;;;;;2.53;1.20;;;18.80;37.00;;;;;;5003287;28;20461;-64
2022/03/14 14:06:51;;;;;;;1.20;1.10;;;18.80;37.10;;;;;;4999585;28;20428;-65
2022/03/14 14:09:22;;;;;;;0.90;0.90;;;18.80;37.20;;;;;;5000206;28;20519;-63
2022/03/14 14:12:03;;;;;;;0.90;0.80;;;18.80;37.30;;;;;;4994302;28;20465;-65
2022/03/14 14:14:30;;;;;;;1.10;1.00;;;18.80;37.30;;;;;;4999452;28;20475;-66
2022/03/14 14:17:16;;;;;;;1.10;1.10;;;18.70;37.30;;;;;;4997539;28;21026;-65
2022/03/14 14:20:08;;;;;;;0.80;0.80;;;18.70;37.30;;;;;;4997697;28;20514;-65
2022/03/14 14:22:35;;;;;;;1.10;0.90;;;18.70;37.30;;;;;;4999170;28;20471;-63
2022/03/14 14:25:16;;;;;;;0.87;0.87;;;18.70;37.40;;;;;;4998486;28;20488;-64
2022/03/14 14:27:50;;;;;;;1.10;1.00;;;18.70;37.40;;;;;;4998374;28;20463;-64
2022/03/14 14:30:28;;;;;;;0.90;0.90;;;18.70;37.40;;;;;;5002765;28;20455;-64
2022/03/14 14:32:53;;;;;;;1.00;0.90;;;18.80;37.60;;;;;;4997568;28;20436;-64
2022/03/14 14:35:20;;;;;;;1.00;0.90;;;18.70;37.50;;;;;;5000131;28;20425;-65
2022/03/14 14:37:46;;;;;;;1.27;1.00;;;18.70;37.50;;;;;;4997500;28;20221;-64
2022/03/14 14:40:11;;;;;;;1.10;0.83;;;18.70;37.50;;;;;;4994123;28;20456;-64
2022/03/14 14:42:37;;;;;;;0.83;0.80;;;18.70;37.60;;;;;;5003419;28;20224;-66
2022/03/14 14:45:03;;;;;;;1.17;1.07;;;18.70;37.60;;;;;;4998483;28;20221;-65
2022/03/14 14:47:29;;;;;;;1.20;1.10;;;18.70;37.60;;;;;;4993551;28;20223;-65
2022/03/14 14:49:55;;;;;;;1.00;0.90;;;18.70;37.60;;;;;;4997517;28;20460;-65
2022/03/14 14:52:20;;;;;;;1.00;0.90;;;18.70;37.60;;;;;;4996864;28;20441;-64
2022/03/14 14:54:47;;;;;;;1.00;0.90;;;18.70;37.60;;;;;;4999142;28;20236;-65
2022/03/14 14:57:14;;;;;;;1.20;0.93;;;18.70;37.80;;;;;;4993389;28;21121;-65
2022/03/14 14:59:40;;;;;;;2.03;1.03;;;18.70;37.70;;;;;;4998972;28;20468;-64
2022/03/14 15:02:06;;;;;;;1.90;1.20;;;18.70;37.70;;;;;;5003132;28;20432;-65
2022/03/14 15:04:32;;;;;;;1.10;1.00;;;18.70;37.70;;;;;;4995989;28;20454;-64
2022/03/14 15:06:58;;;;;;;0.83;0.83;;;18.70;37.70;;;;;;4994905;28;20999;-64
2022/03/14 15:09:24;;;;;;;1.20;1.10;;;18.70;37.70;;;;;;4997161;28;20307;-64
2022/03/14 15:11:49;;;;;;;1.00;0.90;;;18.70;37.80;;;;;;4999286;28;20683;-64
2022/03/14 15:14:16;;;;;;;1.13;1.03;;;18.70;37.70;;;;;;4997533;28;20216;-64
2022/03/14 15:16:43;;;;;;;1.00;0.90;;;18.70;37.80;;;;;;5000541;28;20228;-64
2022/03/14 15:19:09;;;;;;;1.27;0.80;;;18.70;37.80;;;;;;4993179;28;21214;-65
2022/03/14 15:21:35;;;;;;;0.83;0.83;;;18.70;37.80;;;;;;4996452;28;20457;-61
2022/03/14 15:24:01;;;;;;;1.00;0.87;;;18.70;37.80;;;;;;5000495;28;20456;-64
2022/03/14 15:26:27;;;;;;;1.00;0.90;;;18.70;37.80;;;;;;5004271;28;20851;-64
2022/03/14 15:28:54;;;;;;;0.90;0.90;;;18.70;37.80;;;;;;5003562;28;20230;-64
2022/03/14 15:31:20;;;;;;;0.93;0.90;;;18.70;37.80;;;;;;4999192;28;20472;-64
2022/03/14 15:33:45;;;;;;;1.10;1.00;;;18.70;37.80;;;;;;4998589;28;20557;-64
2022/03/14 15:36:11;;;;;;;1.00;0.90;;;18.70;37.90;;;;;;4999686;28;20543;-63
2022/03/14 15:38:37;;;;;;;1.10;1.00;;;18.70;37.90;;;;;;5002448;28;20635;-66
2022/03/14 15:41:06;;;;;;;1.57;1.10;;;18.70;37.90;;;;;;5002731;28;20224;-64
2022/03/14 15:43:32;;;;;;;0.80;0.77;;;18.70;38.00;;;;;;5000168;28;20231;-65
2022/03/14 15:45:58;;;;;;;1.20;1.00;;;18.70;37.90;;;;;;4998509;28;21140;-64
2022/03/14 15:48:24;;;;;;;0.90;0.90;;;18.70;37.90;;;;;;5002682;28;20233;-65
2022/03/14 15:50:50;;;;;;;1.03;0.93;;;18.70;37.90;;;;;;5004113;28;20220;-65
2022/03/14 15:53:17;;;;;;;1.00;0.90;;;18.70;37.80;;;;;;5001180;28;20812;-69
2022/03/14 15:55:43;;;;;;;0.80;0.80;;;18.70;37.90;;;;;;5004876;28;20823;-66
2022/03/14 15:58:12;;;;;;;0.90;0.90;;;18.70;37.80;;;;;;5000604;28;20481;-66
2022/03/14 16:00:37;;;;;;;1.00;0.90;;;18.70;37.90;;;;;;5002442;28;21007;-65
2022/03/14 16:03:03;;;;;;;1.20;1.10;;;18.70;37.90;;;;;;5004615;28;20423;-64
2022/03/14 16:05:29;;;;;;;2.87;0.97;;;18.70;37.90;;;;;;4999895;28;20604;-65
2022/03/14 16:07:54;;;;;;;0.90;0.90;;;18.70;38.00;;;;;;5001553;28;20225;-65
2022/03/14 16:10:20;;;;;;;1.00;0.90;;;18.70;38.00;;;;;;4999113;28;20274;-65
2022/03/14 16:12:46;;;;;;;1.07;0.97;;;18.70;37.90;;;;;;4998993;28;20674;-65
2022/03/14 16:15:12;;;;;;;1.20;0.90;;;18.70;38.00;;;;;;5001066;28;20231;-65
2022/03/14 16:17:38;;;;;;;1.07;0.97;;;18.70;37.90;;;;;;4998282;28;20446;-65
2022/03/14 16:20:08;;;;;;;1.40;1.10;;;18.80;38.10;;;;;;4999150;28;20263;-65
2022/03/14 16:22:34;;;;;;;0.90;0.80;;;18.70;37.90;;;;;;5002372;28;20595;-65
2022/03/14 16:24:59;;;;;;;1.00;0.90;;;18.70;37.90;;;;;;4997980;28;20804;-65
2022/03/14 16:27:25;;;;;;;1.13;0.90;;;18.80;37.90;;;;;;5001942;28;20442;-65
2022/03/14 16:29:52;;;;;;;1.73;1.00;;;18.70;37.80;;;;;;4998534;28;20228;-65
2022/03/14 16:32:17;;;;;;;1.03;0.93;;;18.80;37.90;;;;;;4998763;28;20226;-66
2022/03/14 16:34:45;;;;;;;1.13;1.00;;;18.70;37.80;;;;;;4998476;28;20545;-66
2022/03/14 16:37:10;;;;;;;1.53;1.10;;;18.80;37.90;;;;;;4996845;28;20232;-65
2022/03/14 16:39:37;;;;;;;1.23;1.10;;;18.80;38.00;;;;;;5001235;28;21033;-66
2022/03/14 16:42:04;;;;;;;1.40;1.00;;;18.80;37.80;;;;;;5003424;28;20252;-66
2022/03/14 16:44:29;;;;;;;1.10;1.00;;;18.80;37.80;;;;;;4998394;28;21037;-66
2022/03/14 16:46:55;;;;;;;1.20;1.10;;;18.80;37.70;;;;;;5002409;28;20549;-64
2022/03/14 16:49:21;;;;;;;1.30;1.17;;;18.80;37.70;;;;;;5001610;28;20750;-66
2022/03/14 16:51:47;;;;;;;1.43;1.33;;;18.80;37.70;;;;;;5001008;28;20311;-67
2022/03/14 16:54:14;;;;;;;1.20;1.10;;;18.80;37.70;;;;;;5002559;28;20239;-67
2022/03/14 16:56:40;;;;;;;3.00;1.30;;;18.80;37.70;;;;;;4996847;28;20461;-66
2022/03/14 16:59:07;;;;;;;1.97;1.60;;;18.80;37.70;;;;;;4998849;28;20466;-66
2022/03/14 17:01:32;;;;;;;1.43;1.33;;;18.80;37.60;;;;;;5000169;28;20442;-66
2022/03/14 17:03:58;;;;;;;1.60;1.50;;;18.80;37.70;;;;;;4998075;28;20479;-67
2022/03/14 17:06:23;;;;;;;1.30;1.20;;;18.80;37.60;;;;;;5001168;28;20243;-66
2022/03/14 17:08:49;;;;;;;1.40;1.30;;;18.80;37.70;;;;;;4998398;28;20319;-65
2022/03/14 17:11:15;;;;;;;1.60;1.50;;;18.80;37.60;;;;;;5000732;28;20220;-65
2022/03/14 17:13:41;;;;;;;1.63;1.53;;;18.80;38.40;;;;;;5001549;28;20843;-68
2022/03/14 17:16:07;;;;;;;1.93;1.83;;;18.90;37.80;;;;;;5002980;28;20216;-66
2022/03/14 17:18:33;;;;;;;1.70;1.53;;;18.80;38.40;;;;;;5000146;28;20486;-66
2022/03/14 17:20:58;;;;;;;1.80;1.70;;;18.90;37.70;;;;;;4999884;28;20761;-69
2022/03/14 17:23:24;;;;;;;2.47;1.87;;;18.90;37.70;;;;;;4996587;28;20521;-69
2022/03/14 17:25:53;;;;;;;1.43;1.33;;;18.90;37.70;;;;;;4995438;28;20228;-71
2022/03/14 17:28:20;;;;;;;1.93;1.50;;;18.90;37.60;;;;;;4998781;28;20520;-70
2022/03/14 17:30:46;;;;;;;1.53;1.40;;;18.90;37.60;;;;;;4994656;28;20489;-67
2022/03/14 17:33:13;;;;;;;1.80;1.70;;;18.90;37.60;;;;;;4998334;28;20458;-67
2022/03/14 17:35:39;;;;;;;1.70;1.60;;;18.90;37.60;;;;;;4999087;28;20460;-68
2022/03/14 17:38:05;;;;;;;3.80;1.80;;;18.90;37.60;;;;;;5003468;28;20446;-67
2022/03/14 17:40:32;;;;;;;2.70;1.67;;;18.90;37.60;;;;;;5000486;28;20638;-67
2022/03/14 17:42:59;;;;;;;1.50;1.40;;;18.90;37.60;;;;;;5000370;28;20445;-67
2022/03/14 17:45:25;;;;;;;2.00;1.80;;;18.90;37.60;;;;;;4996860;28;20439;-66
2022/03/14 17:47:54;;;;;;;2.27;1.60;;;18.90;37.60;;;;;;4993548;28;20493;-67
2022/03/14 17:50:20;;;;;;;1.77;1.53;;;18.90;37.60;;;;;;4998309;28;20480;-67
2022/03/14 17:52:46;;;;;;;1.90;1.80;;;18.90;37.60;;;;;;5001930;28;20462;-67
2022/03/14 17:55:12;;;;;;;1.73;1.63;;;18.90;37.60;;;;;;4995910;28;21149;-67
2022/03/14 17:57:39;;;;;;;2.20;1.60;;;18.90;37.60;;;;;;4995297;28;20700;-61
2022/03/14 18:00:07;;;;;;;2.70;1.47;;;18.90;37.70;;;;;;5000381;28;20319;-66
2022/03/14 18:02:33;;;;;;;1.70;1.60;;;18.90;37.70;;;;;;4997082;28;20455;-68
2022/03/14 18:05:01;;;;;;;1.60;1.43;;;18.90;37.70;;;;;;4997329;28;20454;-67
2022/03/14 18:07:28;;;;;;;1.53;1.33;;;18.90;38.50;;;;;;4996429;28;20856;-67
2022/03/14 18:09:54;;;;;;;1.90;1.80;;;18.90;37.70;;;;;;5000701;28;20450;-67
2022/03/14 18:12:21;;;;;;;1.77;1.50;;;18.90;37.60;;;;;;4995760;28;20523;-67
2022/03/14 18:14:47;;;;;;;1.80;1.70;;;18.90;37.70;;;;;;4995612;28;20454;-66
2022/03/14 18:17:13;;;;;;;2.60;1.37;;;18.90;37.70;;;;;;4997764;28;20454;-67
2022/03/14 18:19:39;;;;;;;3.20;1.90;;;18.90;37.90;;;;;;4998520;28;20424;-65
2022/03/14 18:22:08;;;;;;;1.57;1.47;;;18.90;37.70;;;;;;4994736;28;20461;-67
2022/03/14 18:24:34;;;;;;;1.97;1.50;;;18.90;37.70;;;;;;4996460;28;20435;-68
2022/03/14 18:27:00;;;;;;;1.70;1.60;;;18.90;37.60;;;;;;5000970;28;20447;-67
2022/03/14 18:29:26;;;;;;;1.80;1.70;;;18.90;37.70;;;;;;4994636;28;20446;-66
2022/03/14 18:31:52;;;;;;;1.43;1.33;;;18.90;37.70;;;;;;4993335;28;20439;-66
2022/03/14 18:34:35;;;;;;;3.23;1.73;;;18.90;37.70;;;;;;4997127;28;20285;-66
2022/03/14 18:37:00;;;;;;;1.87;1.50;;;18.90;37.70;;;;;;4995717;28;20425;-66
2022/03/14 18:39:26;;;;;;;1.40;1.30;;;18.90;37.70;;;;;;4998427;28;20966;-66
2022/03/14 18:41:53;;;;;;;1.40;1.30;;;18.90;37.70;;;;;;4992498;28;20232;-66
2022/03/14 18:44:21;;;;;;;1.87;1.50;;;18.90;37.70;;;;;;4994710;28;20208;-66
2022/03/14 18:46:47;;;;;;;1.60;1.50;;;18.90;37.70;;;;;;4999465;28;20433;-66